PST,Max TemperatureF,Mean TemperatureF,Min TemperatureF,Max Dew PointF,MeanDew PointF,Min DewpointF,Max Humidity, Mean Humidity, Min Humidity, Max Sea Level PressureIn, Mean Sea Level PressureIn, Min Sea Level PressureIn, Max VisibilityMiles, Mean VisibilityMiles, Min VisibilityMiles, Max Wind SpeedMPH, Mean Wind SpeedMPH, Max Gust SpeedMPH,PrecipitationIn, CloudCover, Events, WindDirDegrees
2013-2-1,64,45,26,32,26,23,86,55,24,30.30,30.25,30.20,10,10,6,14,4,18,0.00,0,,115
2013-2-2,59,48,37,41,28,23,81,44,25,30.33,30.28,30.25,10,10,5,16,8,21,0.01,3,Rain,110
2013-2-3,55,44,32,41,35,27,93,72,41,30.25,30.18,30.12,10,9,3,18,6,24,0.00,2,,314
2013-2-4,62,44,26,43,28,19,93,62,19,30.18,30.13,30.09,10,9,3,16,4,18,0.00,0,,123
2013-2-5,62,45,28,45,31,23,100,66,22,30.12,30.05,30.00,10,7,0,23,7,28,0.00,2,Rain,307
2013-2-6,46,35,24,41,36,25,100,91,66,30.15,30.10,30.03,9,3,0,20,13,25,0.00,5,Fog-Rain,303
2013-2-7,55,37,19,36,26,7,100,79,16,30.14,30.04,29.90,10,8,1,20,5,25,0.00,2,,315
2013-2-8,35,32,30,32,30,27,100,92,80,29.90,29.84,29.78,10,6,0,20,14,29,0.95,8,Rain-Snow,294
2013-2-9,37,32,26,32,26,18,100,80,56,30.04,29.95,29.87,10,8,1,22,13,29,0.12,3,Rain-Snow,307
2013-2-10,42,30,17,27,21,14,93,71,49,30.04,30.00,29.95,10,10,9,15,4,20,0.00,0,,312
2013-2-11,46,34,23,21,16,9,86,53,22,30.23,30.09,30.03,10,10,8,12,6,20,0.00,0,,133
2013-2-12,51,34,17,23,16,9,86,55,20,30.32,30.28,30.23,10,10,8,15,4,18,0.00,0,,13
2013-2-13,57,39,21,32,23,14,93,64,18,30.30,30.26,30.21,10,9,5,17,4,20,0.00,0,Thunderstorm,107
2013-2-14,62,43,24,25,21,19,93,46,19,30.26,30.22,30.19,10,10,6,21,7,29,0.00,0,,122
2013-2-15,62,48,33,23,15,10,60,25,14,30.36,30.32,30.28,10,10,9,22,14,31,0.00,0,,120
2013-2-16,60,44,28,32,15,9,70,33,13,30.34,30.20,30.08,10,10,9,20,10,28,0.00,0,,112
2013-2-17,55,40,24,32,27,18,87,60,33,30.07,30.01,29.97,10,9,6,21,6,24,0.00,0,,309
2013-2-18,60,42,24,37,27,19,100,63,20,30.03,29.97,29.91,10,9,5,17,5,23,0.00,0,,353
2013-2-19,37,32,26,36,32,25,100,93,60,29.91,29.77,29.62,10,5,0,25,11,32,16.74,8,Fog-Rain-Snow,308
2013-2-20,30,27,24,28,27,23,100,98,86,29.98,29.76,29.60,10,4,0,30,22,38,13.39,8,Fog-Rain-Snow,299
2013-2-21,39,34,28,32,29,27,100,82,65,30.12,30.03,29.93,10,10,7,16,12,20,0.00,4,,302
2013-2-22,48,34,21,34,26,19,100,76,43,30.21,30.15,30.11,10,9,5,14,4,,0.00,0,,301
2013-2-23,46,39,32,36,30,27,93,81,57,30.17,30.11,30.05,10,9,4,24,12,33,0.00,2,,301
2013-2-24,48,37,26,32,13,1,100,46,15,30.23,30.14,30.08,10,9,5,21,7,26,0.00,2,,120
2013-2-25,55,37,19,25,17,9,68,46,20,30.25,30.17,30.10,10,10,9,18,6,25,0.00,0,,300
2013-2-26,55,40,26,36,29,16,100,67,22,30.22,30.14,30.10,10,8,2,15,8,24,0.00,0,,300
2013-2-27,55,40,26,27,15,7,80,42,15,30.38,30.29,30.21,10,10,8,13,9,17,0.00,0,,116
2013-2-28,59,41,23,28,22,10,75,52,16,30.47,30.41,30.37,10,10,8,15,4,18,0.00,0,,317